Time,TemperatureF,DewpointF,PressureIn,WindDirection,WindDirectionDegrees,WindSpeedMPH,WindSpeedGustMPH,Humidity,HourlyPrecipIn,Conditions,Clouds,dailyrainin,SoftwareType,DateUTC
2013-08-22 00:13:00,73.0,-99.9,-100.00,South,169,1.0,2.0,-999,0.00,,,-99.99,,2013-08-22 05:13:00,
2013-08-22 00:23:00,73.0,-99.9,-100.00,South,169,1.0,2.0,-999,0.00,,,-99.99,,2013-08-22 05:23:00,
2013-08-22 00:43:00,73.0,-99.9,-100.00,SSE,162,0.0,1.0,-999,0.00,,,0.00,,2013-08-22 05:43:00,
2013-08-22 00:53:00,73.0,-99.9,-100.00,SSE,162,0.0,1.0,-999,0.00,,,0.00,,2013-08-22 05:53:00,
2013-08-22 01:12:00,72.0,-99.9,-100.00,South,172,1.0,1.0,-999,0.00,,,0.00,,2013-08-22 06:12:00,
2013-08-22 01:22:00,72.0,-99.9,-100.00,South,172,1.0,1.0,-999,0.00,,,0.00,,2013-08-22 06:22:00,
2013-08-22 01:42:00,72.0,-99.9,-100.00,SE,126,1.0,3.0,-999,0.00,,,0.00,,2013-08-22 06:42:00,
2013-08-22 01:52:00,72.0,-99.9,-100.00,SE,126,1.0,3.0,-999,0.00,,,0.00,,2013-08-22 06:52:00,
2013-08-22 02:12:00,72.0,-99.9,-100.00,South,172,0.0,1.0,-999,0.00,,,0.00,,2013-08-22 07:12:00,
2013-08-22 02:22:00,72.0,-99.9,-100.00,South,172,0.0,1.0,-999,0.00,,,0.00,,2013-08-22 07:22:00,
2013-08-22 02:42:00,71.0,-99.9,-100.00,South,171,0.0,1.0,-999,0.00,,,0.00,,2013-08-22 07:42:00,
2013-08-22 02:53:00,71.0,-99.9,-100.00,South,171,0.0,1.0,-999,0.00,,,0.00,,2013-08-22 07:53:00,
2013-08-22 03:12:00,71.0,-99.9,-100.00,SSE,167,0.0,0.0,-999,0.00,,,0.00,,2013-08-22 08:12:00,
2013-08-22 03:43:00,70.0,-99.9,-100.00,SE,134,1.0,2.0,-999,0.00,,,0.00,,2013-08-22 08:43:00,
2013-08-22 03:53:00,70.0,-99.9,-100.00,SE,134,1.0,2.0,-999,0.00,,,0.00,,2013-08-22 08:53:00,
2013-08-22 04:11:00,70.0,-99.9,-100.00,South,187,0.0,1.0,-999,0.00,,,0.00,,2013-08-22 09:11:00,
2013-08-22 04:22:00,70.0,-99.9,-100.00,South,187,0.0,1.0,-999,0.00,,,0.00,,2013-08-22 09:22:00,
2013-08-22 04:43:00,70.0,-99.9,-100.00,SE,129,1.0,2.0,-999,0.00,,,0.00,,2013-08-22 09:43:00,
2013-08-22 04:54:00,70.0,-99.9,-100.00,SE,129,1.0,2.0,-999,0.00,,,0.00,,2013-08-22 09:54:00,
2013-08-22 05:00:00,69.0,-99.9,-100.00,SE,144,0.0,1.0,-999,0.00,,,0.00,,2013-08-22 10:00:00,
2013-08-22 05:12:00,69.0,-99.9,-100.00,SSE,168,0.0,1.0,-999,0.00,,,0.00,,2013-08-22 10:12:00,
2013-08-22 05:23:00,69.0,-99.9,-100.00,SSE,168,0.0,1.0,-999,0.00,,,0.00,,2013-08-22 10:23:00,
2013-08-22 05:42:00,69.0,-99.9,-100.00,SE,144,0.0,1.0,-999,0.00,,,0.00,,2013-08-22 10:42:00,
2013-08-22 07:42:00,70.0,-99.9,-100.00,SE,130,1.0,3.0,-999,0.00,,,0.00,,2013-08-22 12:42:00,
2013-08-22 07:52:00,70.0,-99.9,-100.00,SE,130,1.0,3.0,-999,0.00,,,0.00,,2013-08-22 12:52:00,
2013-08-22 08:12:00,71.0,-99.9,-100.00,SE,144,1.0,2.0,-999,0.00,,,0.00,,2013-08-22 13:12:00,
2013-08-22 08:22:00,71.0,-99.9,-100.00,SE,144,1.0,2.0,-999,0.00,,,0.00,,2013-08-22 13:22:00,
2013-08-22 08:42:00,73.0,-99.9,-100.00,SSE,147,1.0,2.0,-999,0.00,,,0.00,,2013-08-22 13:42:00,
2013-08-22 08:52:00,73.0,-99.9,-100.00,SSE,147,1.0,2.0,-999,0.00,,,0.00,,2013-08-22 13:52:00,
2013-08-22 09:11:00,77.0,-99.9,-100.00,South,171,1.0,2.0,-999,0.00,,,0.00,,2013-08-22 14:11:00,
2013-08-22 09:22:00,77.0,-99.9,-100.00,South,171,1.0,2.0,-999,0.00,,,0.00,,2013-08-22 14:22:00,
2013-08-22 09:42:00,78.0,-99.9,-100.00,SW,230,2.0,4.0,-999,0.00,,,0.00,,2013-08-22 14:42:00,
2013-08-22 09:52:00,78.0,-99.9,-100.00,SW,230,2.0,4.0,-999,0.00,,,0.00,,2013-08-22 14:52:00,
2013-08-22 10:12:00,80.0,-99.9,-100.00,WSW,240,3.0,5.0,-999,0.00,,,0.00,,2013-08-22 15:12:00,
2013-08-22 10:22:00,80.0,-99.9,-100.00,WSW,240,3.0,5.0,-999,0.00,,,0.00,,2013-08-22 15:22:00,
2013-08-22 10:44:00,79.0,-99.9,-100.00,NW,324,2.0,4.0,-999,0.00,,,0.00,,2013-08-22 15:44:00,
2013-08-22 10:55:00,79.0,-99.9,-100.00,NW,324,2.0,4.0,-999,0.00,,,0.00,,2013-08-22 15:55:00,
2013-08-22 11:14:00,80.0,-99.9,-100.00,NW,306,4.0,6.0,-999,0.00,,,0.00,,2013-08-22 16:14:00,
2013-08-22 11:25:00,80.0,-99.9,-100.00,NW,306,4.0,6.0,-999,0.00,,,0.00,,2013-08-22 16:25:00,
2013-08-22 11:30:00,84.0,-99.9,-100.00,West,265,3.0,9.0,-999,0.00,,,0.00,,2013-08-22 16:30:00,
2013-08-22 11:44:00,83.0,-99.9,-100.00,WSW,249,2.0,5.0,-999,0.00,,,0.00,,2013-08-22 16:44:00,
2013-08-22 11:54:00,83.0,-99.9,-100.00,WSW,249,2.0,5.0,-999,0.00,,,0.00,,2013-08-22 16:54:00,
2013-08-22 12:12:00,84.0,-99.9,-100.00,West,265,3.0,9.0,-999,0.00,,,0.00,,2013-08-22 17:12:00,
2013-08-22 12:24:00,84.0,-99.9,-100.00,West,265,3.0,9.0,-999,0.00,,,0.00,,2013-08-22 17:24:00,
2013-08-22 13:12:00,83.0,-99.9,-100.00,NNW,346,5.0,10.0,-999,0.00,,,0.00,,2013-08-22 18:12:00,
2013-08-22 13:22:00,83.0,-99.9,-100.00,NNW,346,5.0,10.0,-999,0.00,,,0.00,,2013-08-22 18:22:00,
2013-08-22 13:43:00,82.0,-99.9,-100.00,NNE,27,6.0,7.0,-999,0.00,,,0.00,,2013-08-22 18:43:00,
2013-08-22 13:52:00,82.0,-99.9,-100.00,NNE,27,6.0,7.0,-999,0.00,,,0.00,,2013-08-22 18:52:00,
2013-08-22 14:11:00,85.0,-99.9,-100.00,NNW,347,2.0,2.0,-999,0.00,,,0.00,,2013-08-22 19:11:00,
2013-08-22 14:22:00,85.0,-99.9,-100.00,NNW,347,2.0,2.0,-999,0.00,,,0.00,,2013-08-22 19:22:00,
2013-08-22 14:42:00,86.0,-99.9,-100.00,West,260,2.0,3.0,-999,0.00,,,0.00,,2013-08-22 19:42:00,
2013-08-22 14:53:00,86.0,-99.9,-100.00,West,260,2.0,3.0,-999,0.00,,,0.00,,2013-08-22 19:53:00,
2013-08-22 15:12:00,85.0,-99.9,-100.00,NNW,341,2.0,4.0,-999,0.00,,,0.00,,2013-08-22 20:12:00,
2013-08-22 15:23:00,85.0,-99.9,-100.00,NNW,341,2.0,4.0,-999,0.00,,,0.00,,2013-08-22 20:23:00,
2013-08-22 15:42:00,83.0,-99.9,-100.00,North,354,5.0,6.0,-999,0.00,,,0.00,,2013-08-22 20:42:00,
2013-08-22 15:52:00,83.0,-99.9,-100.00,North,354,5.0,6.0,-999,0.00,,,0.00,,2013-08-22 20:52:00,
2013-08-22 16:13:00,85.0,-99.9,-100.00,East,88,3.0,6.0,-999,0.00,,,0.00,,2013-08-22 21:13:00,
2013-08-22 16:22:00,85.0,-99.9,-100.00,East,88,3.0,6.0,-999,0.00,,,0.00,,2013-08-22 21:22:00,
2013-08-22 16:30:00,87.0,-99.9,-100.00,ESE,117,2.0,5.0,-999,0.00,,,0.00,,2013-08-22 21:30:00,
2013-08-22 16:44:00,85.0,-99.9,-100.00,NE,42,4.0,8.0,-999,0.00,,,0.00,,2013-08-22 21:44:00,
2013-08-22 16:54:00,85.0,-99.9,-100.00,NE,42,4.0,8.0,-999,0.00,,,0.00,,2013-08-22 21:54:00,
2013-08-22 17:00:00,86.0,-99.9,-100.00,ESE,107,2.0,3.0,-999,0.00,,,0.00,,2013-08-22 22:00:00,
2013-08-22 17:13:00,87.0,-99.9,-100.00,ESE,117,2.0,5.0,-999,0.00,,,0.00,,2013-08-22 22:13:00,
2013-08-22 17:25:00,87.0,-99.9,-100.00,ESE,117,2.0,5.0,-999,0.00,,,0.00,,2013-08-22 22:25:00,
2013-08-22 17:53:00,86.0,-99.9,-100.00,ESE,107,2.0,3.0,-999,0.00,,,0.00,,2013-08-22 22:53:00,
2013-08-22 22:12:00,79.0,-99.9,-100.00,ESE,105,1.0,1.0,-999,-99.99,,,0.00,,2013-08-23 03:12:00,
2013-08-22 22:23:00,79.0,-99.9,-100.00,ESE,105,1.0,1.0,-999,-99.99,,,0.00,,2013-08-23 03:23:00,
2013-08-22 22:44:00,79.0,-99.9,-100.00,ENE,71,1.0,3.0,-999,0.00,,,0.00,,2013-08-23 03:44:00,
2013-08-22 22:55:00,79.0,-99.9,-100.00,ENE,71,1.0,3.0,-999,0.00,,,0.00,,2013-08-23 03:55:00,
2013-08-22 23:13:00,79.0,-99.9,-100.00,SE,132,1.0,3.0,-999,0.00,,,0.00,,2013-08-23 04:13:00,
2013-08-22 23:24:00,79.0,-99.9,-100.00,SE,132,1.0,3.0,-999,0.00,,,0.00,,2013-08-23 04:24:00,
2013-08-22 23:43:00,78.0,-99.9,-100.00,ESE,112,4.0,6.0,-999,0.00,,,0.00,,2013-08-23 04:43:00,
2013-08-22 23:54:00,78.0,-99.9,-100.00,ESE,112,4.0,6.0,-999,0.00,,,0.00,,2013-08-23 04:54:00,